sensor_id;sensor_type;location;lat;lon;timestamp;P1;durP1;ratioP1;P2;durP2;ratioP2
5077;SDS011;2557;51.390;7.494;2022-12-29T00:01:37;1.37;;;1.27;;
5077;SDS011;2557;51.390;7.494;2022-12-29T00:04:04;1.60;;;1.50;;
5077;SDS011;2557;51.390;7.494;2022-12-29T00:06:30;1.70;;;1.60;;
5077;SDS011;2557;51.390;7.494;2022-12-29T00:08:56;1.90;;;1.80;;
5077;SDS011;2557;51.390;7.494;2022-12-29T00:11:24;1.60;;;1.47;;
5077;SDS011;2557;51.390;7.494;2022-12-29T00:13:51;1.60;;;1.50;;
5077;SDS011;2557;51.390;7.494;2022-12-29T00:16:36;1.57;;;1.47;;
5077;SDS011;2557;51.390;7.494;2022-12-29T00:19:03;1.37;;;1.27;;
5077;SDS011;2557;51.390;7.494;2022-12-29T00:21:29;2.20;;;1.40;;
5077;SDS011;2557;51.390;7.494;2022-12-29T00:24:15;1.53;;;1.43;;
5077;SDS011;2557;51.390;7.494;2022-12-29T00:30:08;2.13;;;1.43;;
5077;SDS011;2557;51.390;7.494;2022-12-29T00:32:53;1.37;;;1.27;;
5077;SDS011;2557;51.390;7.494;2022-12-29T00:38:33;1.40;;;1.30;;
5077;SDS011;2557;51.390;7.494;2022-12-29T00:41:19;1.47;;;1.37;;
5077;SDS011;2557;51.390;7.494;2022-12-29T00:44:04;2.03;;;1.47;;
5077;SDS011;2557;51.390;7.494;2022-12-29T00:46:33;1.97;;;1.20;;
5077;SDS011;2557;51.390;7.494;2022-12-29T00:49:00;1.30;;;1.20;;
5077;SDS011;2557;51.390;7.494;2022-12-29T00:51:45;1.40;;;1.30;;
5077;SDS011;2557;51.390;7.494;2022-12-29T00:54:11;1.23;;;1.13;;
5077;SDS011;2557;51.390;7.494;2022-12-29T00:56:37;1.30;;;1.20;;
5077;SDS011;2557;51.390;7.494;2022-12-29T00:59:04;1.33;;;1.23;;
5077;SDS011;2557;51.390;7.494;2022-12-29T01:01:30;1.00;;;1.00;;
5077;SDS011;2557;51.390;7.494;2022-12-29T01:03:57;1.30;;;1.20;;
5077;SDS011;2557;51.390;7.494;2022-12-29T01:06:23;2.50;;;1.43;;
5077;SDS011;2557;51.390;7.494;2022-12-29T01:08:49;3.00;;;1.13;;
5077;SDS011;2557;51.390;7.494;2022-12-29T01:11:35;1.10;;;1.10;;
5077;SDS011;2557;51.390;7.494;2022-12-29T01:14:01;1.40;;;1.30;;
5077;SDS011;2557;51.390;7.494;2022-12-29T01:16:27;1.20;;;1.10;;
5077;SDS011;2557;51.390;7.494;2022-12-29T01:18:53;1.20;;;1.10;;
5077;SDS011;2557;51.390;7.494;2022-12-29T01:21:19;1.13;;;1.03;;
5077;SDS011;2557;51.390;7.494;2022-12-29T01:23:45;1.30;;;1.20;;
5077;SDS011;2557;51.390;7.494;2022-12-29T01:26:11;1.40;;;1.30;;
5077;SDS011;2557;51.390;7.494;2022-12-29T01:28:37;1.20;;;1.10;;
5077;SDS011;2557;51.390;7.494;2022-12-29T01:31:07;1.30;;;1.20;;
5077;SDS011;2557;51.390;7.494;2022-12-29T01:33:33;1.23;;;1.13;;
5077;SDS011;2557;51.390;7.494;2022-12-29T01:36:00;1.20;;;1.10;;
5077;SDS011;2557;51.390;7.494;2022-12-29T01:38:26;1.10;;;1.10;;
5077;SDS011;2557;51.390;7.494;2022-12-29T01:40:52;1.13;;;1.07;;
5077;SDS011;2557;51.390;7.494;2022-12-29T01:43:18;1.20;;;1.10;;
5077;SDS011;2557;51.390;7.494;2022-12-29T01:45:45;1.00;;;1.00;;
5077;SDS011;2557;51.390;7.494;2022-12-29T01:48:14;1.03;;;1.03;;
5077;SDS011;2557;51.390;7.494;2022-12-29T01:50:46;1.23;;;1.13;;
5077;SDS011;2557;51.390;7.494;2022-12-29T01:53:17;1.20;;;1.10;;
5077;SDS011;2557;51.390;7.494;2022-12-29T01:55:51;1.30;;;1.20;;
5077;SDS011;2557;51.390;7.494;2022-12-29T01:58:19;1.00;;;1.00;;
5077;SDS011;2557;51.390;7.494;2022-12-29T02:00:46;1.17;;;1.10;;
5077;SDS011;2557;51.390;7.494;2022-12-29T02:03:12;1.10;;;1.10;;
5077;SDS011;2557;51.390;7.494;2022-12-29T02:05:40;0.97;;;0.97;;
5077;SDS011;2557;51.390;7.494;2022-12-29T02:08:07;1.20;;;1.10;;
5077;SDS011;2557;51.390;7.494;2022-12-29T02:10:34;1.53;;;1.00;;
5077;SDS011;2557;51.390;7.494;2022-12-29T02:13:00;1.13;;;1.10;;
5077;SDS011;2557;51.390;7.494;2022-12-29T02:15:50;1.23;;;1.13;;
5077;SDS011;2557;51.390;7.494;2022-12-29T02:20:49;1.17;;;1.10;;
5077;SDS011;2557;51.390;7.494;2022-12-29T02:26:14;1.10;;;1.10;;
5077;SDS011;2557;51.390;7.494;2022-12-29T02:28:47;1.20;;;1.10;;
5077;SDS011;2557;51.390;7.494;2022-12-29T02:31:31;1.00;;;1.00;;
5077;SDS011;2557;51.390;7.494;2022-12-29T02:36:46;1.27;;;1.20;;
5077;SDS011;2557;51.390;7.494;2022-12-29T02:39:22;1.20;;;1.10;;
5077;SDS011;2557;51.390;7.494;2022-12-29T02:42:08;1.20;;;1.10;;
5077;SDS011;2557;51.390;7.494;2022-12-29T02:47:22;1.30;;;1.00;;
5077;SDS011;2557;51.390;7.494;2022-12-29T02:50:03;3.33;;;1.20;;
5077;SDS011;2557;51.390;7.494;2022-12-29T02:52:54;1.20;;;1.10;;
5077;SDS011;2557;51.390;7.494;2022-12-29T02:55:18;1.10;;;1.10;;
5077;SDS011;2557;51.390;7.494;2022-12-29T02:57:44;1.50;;;1.20;;
5077;SDS011;2557;51.390;7.494;2022-12-29T03:00:11;1.20;;;1.10;;
5077;SDS011;2557;51.390;7.494;2022-12-29T03:02:52;1.50;;;1.40;;
5077;SDS011;2557;51.390;7.494;2022-12-29T03:05:27;1.40;;;1.30;;
5077;SDS011;2557;51.390;7.494;2022-12-29T03:13:11;1.80;;;1.30;;
5077;SDS011;2557;51.390;7.494;2022-12-29T03:18:46;4.50;;;1.20;;
5077;SDS011;2557;51.390;7.494;2022-12-29T03:23:42;2.07;;;1.43;;
5077;SDS011;2557;51.390;7.494;2022-12-29T03:26:10;1.37;;;1.27;;
5077;SDS011;2557;51.390;7.494;2022-12-29T03:28:44;1.47;;;1.10;;
5077;SDS011;2557;51.390;7.494;2022-12-29T03:31:12;1.40;;;1.30;;
5077;SDS011;2557;51.390;7.494;2022-12-29T03:33:39;1.40;;;1.30;;
5077;SDS011;2557;51.390;7.494;2022-12-29T03:36:08;1.90;;;1.20;;
5077;SDS011;2557;51.390;7.494;2022-12-29T03:38:36;1.30;;;1.20;;
5077;SDS011;2557;51.390;7.494;2022-12-29T03:41:05;1.77;;;1.17;;
5077;SDS011;2557;51.390;7.494;2022-12-29T03:43:32;1.53;;;1.43;;
5077;SDS011;2557;51.390;7.494;2022-12-29T03:45:59;1.50;;;1.40;;
5077;SDS011;2557;51.390;7.494;2022-12-29T03:48:25;1.30;;;1.20;;
5077;SDS011;2557;51.390;7.494;2022-12-29T03:50:51;2.17;;;1.50;;
5077;SDS011;2557;51.390;7.494;2022-12-29T03:53:17;1.50;;;1.40;;
5077;SDS011;2557;51.390;7.494;2022-12-29T03:55:43;1.90;;;1.20;;
5077;SDS011;2557;51.390;7.494;2022-12-29T03:58:09;1.50;;;1.40;;
5077;SDS011;2557;51.390;7.494;2022-12-29T04:00:35;2.30;;;1.30;;
5077;SDS011;2557;51.390;7.494;2022-12-29T04:03:01;1.40;;;1.30;;
5077;SDS011;2557;51.390;7.494;2022-12-29T04:05:27;2.20;;;1.63;;
5077;SDS011;2557;51.390;7.494;2022-12-29T04:07:53;1.40;;;1.30;;
5077;SDS011;2557;51.390;7.494;2022-12-29T04:10:19;1.23;;;1.13;;
5077;SDS011;2557;51.390;7.494;2022-12-29T04:12:45;1.70;;;1.60;;
5077;SDS011;2557;51.390;7.494;2022-12-29T04:15:11;1.50;;;1.30;;
5077;SDS011;2557;51.390;7.494;2022-12-29T04:17:37;1.40;;;1.30;;
5077;SDS011;2557;51.390;7.494;2022-12-29T04:20:03;1.30;;;1.20;;
5077;SDS011;2557;51.390;7.494;2022-12-29T04:22:49;1.30;;;1.20;;
5077;SDS011;2557;51.390;7.494;2022-12-29T04:25:15;2.50;;;1.30;;
5077;SDS011;2557;51.390;7.494;2022-12-29T04:27:41;1.60;;;1.50;;
5077;SDS011;2557;51.390;7.494;2022-12-29T04:30:07;1.40;;;1.30;;
5077;SDS011;2557;51.390;7.494;2022-12-29T04:32:34;1.40;;;1.30;;
5077;SDS011;2557;51.390;7.494;2022-12-29T04:34:59;1.30;;;1.20;;
5077;SDS011;2557;51.390;7.494;2022-12-29T04:37:25;1.40;;;1.30;;
5077;SDS011;2557;51.390;7.494;2022-12-29T04:39:51;1.23;;;1.13;;
5077;SDS011;2557;51.390;7.494;2022-12-29T04:42:17;1.30;;;1.20;;
5077;SDS011;2557;51.390;7.494;2022-12-29T04:44:43;2.37;;;1.17;;
5077;SDS011;2557;51.390;7.494;2022-12-29T04:47:09;1.40;;;1.30;;
5077;SDS011;2557;51.390;7.494;2022-12-29T04:49:35;1.20;;;1.10;;
5077;SDS011;2557;51.390;7.494;2022-12-29T04:52:01;1.30;;;1.20;;
5077;SDS011;2557;51.390;7.494;2022-12-29T04:54:27;1.70;;;1.60;;
5077;SDS011;2557;51.390;7.494;2022-12-29T04:56:53;1.30;;;1.20;;
5077;SDS011;2557;51.390;7.494;2022-12-29T04:59:19;2.00;;;1.30;;
5077;SDS011;2557;51.390;7.494;2022-12-29T05:01:45;1.37;;;1.10;;
5077;SDS011;2557;51.390;7.494;2022-12-29T05:04:11;2.07;;;1.10;;
5077;SDS011;2557;51.390;7.494;2022-12-29T05:06:37;1.30;;;1.20;;
5077;SDS011;2557;51.390;7.494;2022-12-29T05:09:03;1.37;;;1.27;;
5077;SDS011;2557;51.390;7.494;2022-12-29T05:11:29;1.67;;;1.20;;
5077;SDS011;2557;51.390;7.494;2022-12-29T05:13:55;1.30;;;1.20;;
5077;SDS011;2557;51.390;7.494;2022-12-29T05:16:21;2.00;;;1.20;;
5077;SDS011;2557;51.390;7.494;2022-12-29T05:18:47;1.20;;;1.10;;
5077;SDS011;2557;51.390;7.494;2022-12-29T05:21:13;1.33;;;1.23;;
5077;SDS011;2557;51.390;7.494;2022-12-29T05:23:39;1.40;;;1.30;;
5077;SDS011;2557;51.390;7.494;2022-12-29T05:26:05;1.43;;;1.23;;
5077;SDS011;2557;51.390;7.494;2022-12-29T05:28:31;1.53;;;1.10;;
5077;SDS011;2557;51.390;7.494;2022-12-29T05:30:57;1.53;;;1.30;;
5077;SDS011;2557;51.390;7.494;2022-12-29T05:33:22;1.83;;;1.20;;
5077;SDS011;2557;51.390;7.494;2022-12-29T05:35:48;2.53;;;1.27;;
5077;SDS011;2557;51.390;7.494;2022-12-29T05:38:14;1.50;;;1.40;;
5077;SDS011;2557;51.390;7.494;2022-12-29T05:40:40;1.50;;;1.40;;
5077;SDS011;2557;51.390;7.494;2022-12-29T05:43:06;3.90;;;1.43;;
5077;SDS011;2557;51.390;7.494;2022-12-29T05:45:32;1.50;;;1.40;;
5077;SDS011;2557;51.390;7.494;2022-12-29T05:47:58;1.20;;;1.10;;
5077;SDS011;2557;51.390;7.494;2022-12-29T05:50:24;1.30;;;1.20;;
5077;SDS011;2557;51.390;7.494;2022-12-29T05:52:50;1.40;;;1.30;;
5077;SDS011;2557;51.390;7.494;2022-12-29T05:55:16;1.33;;;1.23;;
5077;SDS011;2557;51.390;7.494;2022-12-29T05:57:42;2.13;;;1.83;;
5077;SDS011;2557;51.390;7.494;2022-12-29T06:00:08;1.50;;;1.40;;
5077;SDS011;2557;51.390;7.494;2022-12-29T06:02:35;2.33;;;1.43;;
5077;SDS011;2557;51.390;7.494;2022-12-29T06:05:01;3.67;;;1.43;;
5077;SDS011;2557;51.390;7.494;2022-12-29T06:07:27;2.60;;;1.50;;
5077;SDS011;2557;51.390;7.494;2022-12-29T06:09:53;5.13;;;1.60;;
5077;SDS011;2557;51.390;7.494;2022-12-29T06:12:19;2.00;;;1.43;;
5077;SDS011;2557;51.390;7.494;2022-12-29T06:14:45;1.63;;;1.53;;
5077;SDS011;2557;51.390;7.494;2022-12-29T06:17:11;2.43;;;1.97;;
5077;SDS011;2557;51.390;7.494;2022-12-29T06:19:37;1.53;;;1.30;;
5077;SDS011;2557;51.390;7.494;2022-12-29T06:22:03;2.47;;;1.83;;
5077;SDS011;2557;51.390;7.494;2022-12-29T06:24:29;2.60;;;1.40;;
5077;SDS011;2557;51.390;7.494;2022-12-29T06:26:55;2.37;;;1.80;;
5077;SDS011;2557;51.390;7.494;2022-12-29T06:29:21;1.20;;;1.10;;
5077;SDS011;2557;51.390;7.494;2022-12-29T06:31:47;1.73;;;1.57;;
5077;SDS011;2557;51.390;7.494;2022-12-29T06:34:14;2.60;;;1.30;;
5077;SDS011;2557;51.390;7.494;2022-12-29T06:36:40;1.57;;;1.47;;
5077;SDS011;2557;51.390;7.494;2022-12-29T06:39:06;1.97;;;1.20;;
5077;SDS011;2557;51.390;7.494;2022-12-29T06:41:32;3.60;;;1.53;;
5077;SDS011;2557;51.390;7.494;2022-12-29T06:43:58;4.10;;;1.43;;
5077;SDS011;2557;51.390;7.494;2022-12-29T06:46:24;1.50;;;1.40;;
5077;SDS011;2557;51.390;7.494;2022-12-29T06:48:50;1.80;;;1.30;;
5077;SDS011;2557;51.390;7.494;2022-12-29T06:51:16;1.47;;;1.37;;
5077;SDS011;2557;51.390;7.494;2022-12-29T06:53:42;1.40;;;1.30;;
5077;SDS011;2557;51.390;7.494;2022-12-29T06:56:08;2.80;;;1.37;;
5077;SDS011;2557;51.390;7.494;2022-12-29T06:58:34;1.90;;;1.50;;
5077;SDS011;2557;51.390;7.494;2022-12-29T07:01:00;1.53;;;1.40;;
5077;SDS011;2557;51.390;7.494;2022-12-29T07:03:26;2.40;;;1.47;;
5077;SDS011;2557;51.390;7.494;2022-12-29T07:05:52;4.17;;;1.40;;
5077;SDS011;2557;51.390;7.494;2022-12-29T07:08:19;2.23;;;1.50;;
5077;SDS011;2557;51.390;7.494;2022-12-29T07:10:45;2.63;;;1.30;;
5077;SDS011;2557;51.390;7.494;2022-12-29T07:13:11;1.20;;;1.10;;
5077;SDS011;2557;51.390;7.494;2022-12-29T07:15:37;1.50;;;1.40;;
5077;SDS011;2557;51.390;7.494;2022-12-29T07:18:03;2.03;;;1.57;;
5077;SDS011;2557;51.390;7.494;2022-12-29T07:20:30;1.70;;;1.30;;
5077;SDS011;2557;51.390;7.494;2022-12-29T07:22:56;1.53;;;1.20;;
5077;SDS011;2557;51.390;7.494;2022-12-29T07:25:22;2.30;;;1.10;;
5077;SDS011;2557;51.390;7.494;2022-12-29T07:27:48;2.17;;;1.37;;
5077;SDS011;2557;51.390;7.494;2022-12-29T07:30:15;1.97;;;1.60;;
5077;SDS011;2557;51.390;7.494;2022-12-29T07:32:41;1.70;;;1.60;;
5077;SDS011;2557;51.390;7.494;2022-12-29T07:35:07;2.07;;;1.20;;
5077;SDS011;2557;51.390;7.494;2022-12-29T07:37:33;4.33;;;1.87;;
5077;SDS011;2557;51.390;7.494;2022-12-29T07:40:00;1.67;;;1.40;;
5077;SDS011;2557;51.390;7.494;2022-12-29T07:42:26;2.00;;;1.40;;
5077;SDS011;2557;51.390;7.494;2022-12-29T07:44:52;5.67;;;1.67;;
5077;SDS011;2557;51.390;7.494;2022-12-29T07:47:18;1.70;;;1.30;;
5077;SDS011;2557;51.390;7.494;2022-12-29T07:49:44;5.03;;;1.70;;
5077;SDS011;2557;51.390;7.494;2022-12-29T07:52:10;2.13;;;1.37;;
5077;SDS011;2557;51.390;7.494;2022-12-29T07:54:36;2.00;;;1.60;;
5077;SDS011;2557;51.390;7.494;2022-12-29T07:57:02;2.30;;;1.73;;
5077;SDS011;2557;51.390;7.494;2022-12-29T07:59:28;1.57;;;1.47;;
5077;SDS011;2557;51.390;7.494;2022-12-29T08:01:55;3.37;;;1.67;;
5077;SDS011;2557;51.390;7.494;2022-12-29T08:04:21;2.77;;;1.57;;
5077;SDS011;2557;51.390;7.494;2022-12-29T08:06:48;4.33;;;1.50;;
5077;SDS011;2557;51.390;7.494;2022-12-29T08:09:14;5.93;;;1.90;;
5077;SDS011;2557;51.390;7.494;2022-12-29T08:11:40;4.77;;;1.90;;
5077;SDS011;2557;51.390;7.494;2022-12-29T08:14:07;5.33;;;2.00;;
5077;SDS011;2557;51.390;7.494;2022-12-29T08:16:33;2.90;;;1.40;;
5077;SDS011;2557;51.390;7.494;2022-12-29T08:19:00;3.70;;;1.40;;
5077;SDS011;2557;51.390;7.494;2022-12-29T08:21:28;2.10;;;1.40;;
5077;SDS011;2557;51.390;7.494;2022-12-29T08:23:54;2.80;;;1.87;;
5077;SDS011;2557;51.390;7.494;2022-12-29T08:26:20;6.00;;;1.87;;
5077;SDS011;2557;51.390;7.494;2022-12-29T08:28:46;3.53;;;1.40;;
5077;SDS011;2557;51.390;7.494;2022-12-29T08:31:12;4.77;;;2.03;;
5077;SDS011;2557;51.390;7.494;2022-12-29T08:33:38;1.60;;;1.50;;
5077;SDS011;2557;51.390;7.494;2022-12-29T08:36:05;3.23;;;2.30;;
5077;SDS011;2557;51.390;7.494;2022-12-29T08:38:31;2.80;;;1.60;;
5077;SDS011;2557;51.390;7.494;2022-12-29T08:40:58;3.13;;;1.97;;
5077;SDS011;2557;51.390;7.494;2022-12-29T08:43:26;4.20;;;1.73;;
5077;SDS011;2557;51.390;7.494;2022-12-29T08:45:52;3.30;;;1.57;;
5077;SDS011;2557;51.390;7.494;2022-12-29T08:48:18;4.50;;;1.80;;
5077;SDS011;2557;51.390;7.494;2022-12-29T08:50:47;4.67;;;1.63;;
5077;SDS011;2557;51.390;7.494;2022-12-29T08:53:13;6.83;;;1.70;;
5077;SDS011;2557;51.390;7.494;2022-12-29T08:55:39;4.53;;;1.80;;
5077;SDS011;2557;51.390;7.494;2022-12-29T08:58:05;8.23;;;1.87;;
5077;SDS011;2557;51.390;7.494;2022-12-29T09:00:30;2.47;;;1.60;;
5077;SDS011;2557;51.390;7.494;2022-12-29T09:02:57;3.43;;;1.70;;
5077;SDS011;2557;51.390;7.494;2022-12-29T09:05:22;2.93;;;1.80;;
5077;SDS011;2557;51.390;7.494;2022-12-29T09:07:48;3.50;;;1.60;;
5077;SDS011;2557;51.390;7.494;2022-12-29T09:10:14;5.70;;;1.80;;
5077;SDS011;2557;51.390;7.494;2022-12-29T09:12:40;2.70;;;1.67;;
5077;SDS011;2557;51.390;7.494;2022-12-29T09:15:07;4.20;;;1.80;;
5077;SDS011;2557;51.390;7.494;2022-12-29T09:17:33;3.33;;;2.03;;
5077;SDS011;2557;51.390;7.494;2022-12-29T09:20:17;4.00;;;1.87;;
5077;SDS011;2557;51.390;7.494;2022-12-29T09:22:45;5.53;;;2.27;;
5077;SDS011;2557;51.390;7.494;2022-12-29T09:25:11;5.27;;;1.53;;
5077;SDS011;2557;51.390;7.494;2022-12-29T09:27:38;2.67;;;2.20;;
5077;SDS011;2557;51.390;7.494;2022-12-29T09:30:04;3.30;;;1.70;;
5077;SDS011;2557;51.390;7.494;2022-12-29T09:32:32;5.03;;;1.93;;
5077;SDS011;2557;51.390;7.494;2022-12-29T09:34:58;1.80;;;1.57;;
5077;SDS011;2557;51.390;7.494;2022-12-29T09:37:24;3.10;;;2.10;;
5077;SDS011;2557;51.390;7.494;2022-12-29T09:39:50;4.03;;;2.30;;
5077;SDS011;2557;51.390;7.494;2022-12-29T09:44:48;3.10;;;1.90;;
5077;SDS011;2557;51.390;7.494;2022-12-29T09:47:16;2.80;;;2.07;;
5077;SDS011;2557;51.390;7.494;2022-12-29T09:49:44;6.23;;;2.30;;
5077;SDS011;2557;51.390;7.494;2022-12-29T09:52:28;5.03;;;2.47;;
5077;SDS011;2557;51.390;7.494;2022-12-29T09:57:25;5.10;;;2.20;;
5077;SDS011;2557;51.390;7.494;2022-12-29T09:59:54;2.47;;;1.80;;
5077;SDS011;2557;51.390;7.494;2022-12-29T10:02:32;3.33;;;1.70;;
5077;SDS011;2557;51.390;7.494;2022-12-29T10:05:00;12.40;;;2.37;;
5077;SDS011;2557;51.390;7.494;2022-12-29T10:10:12;4.97;;;1.87;;
5077;SDS011;2557;51.390;7.494;2022-12-29T10:20:23;2.00;;;1.80;;
5077;SDS011;2557;51.390;7.494;2022-12-29T10:25:21;1.63;;;1.53;;
5077;SDS011;2557;51.390;7.494;2022-12-29T10:27:48;5.17;;;1.87;;
5077;SDS011;2557;51.390;7.494;2022-12-29T10:30:15;5.70;;;2.00;;
5077;SDS011;2557;51.390;7.494;2022-12-29T10:32:43;4.13;;;2.20;;
5077;SDS011;2557;51.390;7.494;2022-12-29T10:35:12;4.30;;;1.83;;
5077;SDS011;2557;51.390;7.494;2022-12-29T10:38:15;7.07;;;2.07;;
5077;SDS011;2557;51.390;7.494;2022-12-29T10:40:33;6.93;;;2.10;;
5077;SDS011;2557;51.390;7.494;2022-12-29T10:43:01;3.83;;;2.20;;
5077;SDS011;2557;51.390;7.494;2022-12-29T10:45:31;6.50;;;1.90;;
5077;SDS011;2557;51.390;7.494;2022-12-29T10:48:00;3.60;;;1.80;;
5077;SDS011;2557;51.390;7.494;2022-12-29T10:50:28;3.17;;;2.33;;
5077;SDS011;2557;51.390;7.494;2022-12-29T10:52:55;2.80;;;1.93;;
5077;SDS011;2557;51.390;7.494;2022-12-29T10:55:22;5.77;;;2.00;;
5077;SDS011;2557;51.390;7.494;2022-12-29T10:57:52;3.07;;;2.10;;
5077;SDS011;2557;51.390;7.494;2022-12-29T11:00:19;4.13;;;2.30;;
5077;SDS011;2557;51.390;7.494;2022-12-29T11:02:49;6.70;;;1.83;;
5077;SDS011;2557;51.390;7.494;2022-12-29T11:05:26;6.57;;;2.10;;
5077;SDS011;2557;51.390;7.494;2022-12-29T11:07:58;5.73;;;2.43;;
5077;SDS011;2557;51.390;7.494;2022-12-29T11:10:29;4.10;;;2.10;;
5077;SDS011;2557;51.390;7.494;2022-12-29T11:12:59;2.30;;;1.60;;
5077;SDS011;2557;51.390;7.494;2022-12-29T11:15:25;3.77;;;1.77;;
5077;SDS011;2557;51.390;7.494;2022-12-29T11:17:57;3.87;;;1.90;;
5077;SDS011;2557;51.390;7.494;2022-12-29T11:22:59;6.23;;;2.10;;
5077;SDS011;2557;51.390;7.494;2022-12-29T11:25:25;8.57;;;2.53;;
5077;SDS011;2557;51.390;7.494;2022-12-29T11:27:55;7.17;;;2.33;;
5077;SDS011;2557;51.390;7.494;2022-12-29T11:30:24;10.60;;;2.43;;
5077;SDS011;2557;51.390;7.494;2022-12-29T11:32:51;3.97;;;2.13;;
5077;SDS011;2557;51.390;7.494;2022-12-29T11:35:38;1.90;;;1.63;;
5077;SDS011;2557;51.390;7.494;2022-12-29T11:38:06;2.33;;;2.13;;
5077;SDS011;2557;51.390;7.494;2022-12-29T11:40:38;6.77;;;2.70;;
5077;SDS011;2557;51.390;7.494;2022-12-29T11:43:04;7.70;;;2.70;;
5077;SDS011;2557;51.390;7.494;2022-12-29T11:45:31;10.20;;;3.03;;
5077;SDS011;2557;51.390;7.494;2022-12-29T11:48:09;4.27;;;2.07;;
5077;SDS011;2557;51.390;7.494;2022-12-29T11:50:39;5.63;;;2.23;;
5077;SDS011;2557;51.390;7.494;2022-12-29T11:53:16;7.37;;;2.23;;
5077;SDS011;2557;51.390;7.494;2022-12-29T11:58:18;5.83;;;2.73;;
5077;SDS011;2557;51.390;7.494;2022-12-29T12:00:44;8.97;;;2.20;;
5077;SDS011;2557;51.390;7.494;2022-12-29T12:03:13;6.40;;;1.90;;
5077;SDS011;2557;51.390;7.494;2022-12-29T12:05:43;6.20;;;2.37;;
5077;SDS011;2557;51.390;7.494;2022-12-29T12:08:25;5.43;;;2.37;;
5077;SDS011;2557;51.390;7.494;2022-12-29T12:10:56;4.00;;;1.97;;
5077;SDS011;2557;51.390;7.494;2022-12-29T12:13:43;4.60;;;2.17;;
5077;SDS011;2557;51.390;7.494;2022-12-29T12:16:14;7.97;;;2.30;;
5077;SDS011;2557;51.390;7.494;2022-12-29T12:21:15;3.43;;;2.50;;
5077;SDS011;2557;51.390;7.494;2022-12-29T12:26:15;6.90;;;1.80;;
5077;SDS011;2557;51.390;7.494;2022-12-29T12:28:56;4.70;;;1.83;;
5077;SDS011;2557;51.390;7.494;2022-12-29T12:31:33;8.63;;;3.37;;
5077;SDS011;2557;51.390;7.494;2022-12-29T12:34:02;6.27;;;2.43;;
5077;SDS011;2557;51.390;7.494;2022-12-29T12:36:40;4.37;;;2.30;;
5077;SDS011;2557;51.390;7.494;2022-12-29T12:39:18;2.30;;;1.57;;
5077;SDS011;2557;51.390;7.494;2022-12-29T12:50:03;7.27;;;2.30;;
5077;SDS011;2557;51.390;7.494;2022-12-29T12:58:25;5.23;;;2.00;;
5077;SDS011;2557;51.390;7.494;2022-12-29T13:01:11;8.90;;;3.53;;
5077;SDS011;2557;51.390;7.494;2022-12-29T13:06:10;8.20;;;2.70;;
5077;SDS011;2557;51.390;7.494;2022-12-29T13:16:23;7.70;;;2.20;;
5077;SDS011;2557;51.390;7.494;2022-12-29T13:18:59;7.33;;;2.80;;
5077;SDS011;2557;51.390;7.494;2022-12-29T13:21:46;7.13;;;2.27;;
5077;SDS011;2557;51.390;7.494;2022-12-29T13:26:44;4.43;;;1.80;;
5077;SDS011;2557;51.390;7.494;2022-12-29T13:31:43;5.17;;;2.40;;
5077;SDS011;2557;51.390;7.494;2022-12-29T13:34:17;7.90;;;2.20;;
5077;SDS011;2557;51.390;7.494;2022-12-29T13:36:48;9.30;;;3.03;;
5077;SDS011;2557;51.390;7.494;2022-12-29T13:39:19;4.30;;;1.70;;
5077;SDS011;2557;51.390;7.494;2022-12-29T13:41:48;4.90;;;2.30;;
5077;SDS011;2557;51.390;7.494;2022-12-29T13:44:17;5.17;;;2.40;;
5077;SDS011;2557;51.390;7.494;2022-12-29T13:46:44;2.40;;;1.73;;
5077;SDS011;2557;51.390;7.494;2022-12-29T13:49:13;4.30;;;1.93;;
5077;SDS011;2557;51.390;7.494;2022-12-29T13:51:41;2.90;;;2.40;;
5077;SDS011;2557;51.390;7.494;2022-12-29T13:54:23;6.67;;;2.00;;
5077;SDS011;2557;51.390;7.494;2022-12-29T13:59:45;6.40;;;1.93;;
5077;SDS011;2557;51.390;7.494;2022-12-29T14:02:24;14.20;;;2.70;;
5077;SDS011;2557;51.390;7.494;2022-12-29T14:04:56;5.70;;;2.10;;
5077;SDS011;2557;51.390;7.494;2022-12-29T14:07:22;4.40;;;2.03;;
5077;SDS011;2557;51.390;7.494;2022-12-29T14:09:49;4.37;;;2.37;;
5077;SDS011;2557;51.390;7.494;2022-12-29T14:12:35;6.73;;;2.30;;
5077;SDS011;2557;51.390;7.494;2022-12-29T14:17:34;6.13;;;2.63;;
5077;SDS011;2557;51.390;7.494;2022-12-29T14:20:00;5.67;;;1.83;;
5077;SDS011;2557;51.390;7.494;2022-12-29T14:22:27;5.20;;;1.93;;
5077;SDS011;2557;51.390;7.494;2022-12-29T14:24:54;9.33;;;2.03;;
5077;SDS011;2557;51.390;7.494;2022-12-29T14:29:49;5.67;;;2.17;;
5077;SDS011;2557;51.390;7.494;2022-12-29T14:34:54;11.97;;;2.20;;
5077;SDS011;2557;51.390;7.494;2022-12-29T14:37:33;4.27;;;2.30;;
5077;SDS011;2557;51.390;7.494;2022-12-29T14:40:18;3.93;;;1.70;;
5077;SDS011;2557;51.390;7.494;2022-12-29T14:42:47;3.43;;;2.03;;
5077;SDS011;2557;51.390;7.494;2022-12-29T14:47:43;3.40;;;1.50;;
5077;SDS011;2557;51.390;7.494;2022-12-29T14:52:49;3.30;;;1.60;;
5077;SDS011;2557;51.390;7.494;2022-12-29T14:57:53;4.77;;;1.67;;
5077;SDS011;2557;51.390;7.494;2022-12-29T15:03:36;3.30;;;1.80;;
5077;SDS011;2557;51.390;7.494;2022-12-29T15:05:45;3.03;;;1.63;;
5077;SDS011;2557;51.390;7.494;2022-12-29T15:08:12;2.63;;;1.90;;
5077;SDS011;2557;51.390;7.494;2022-12-29T15:10:42;5.27;;;2.23;;
5077;SDS011;2557;51.390;7.494;2022-12-29T15:13:22;2.40;;;2.20;;
5077;SDS011;2557;51.390;7.494;2022-12-29T15:15:50;2.80;;;1.70;;
5077;SDS011;2557;51.390;7.494;2022-12-29T15:18:39;5.83;;;2.73;;
5077;SDS011;2557;51.390;7.494;2022-12-29T15:21:11;3.47;;;1.80;;
5077;SDS011;2557;51.390;7.494;2022-12-29T15:23:38;2.70;;;2.03;;
5077;SDS011;2557;51.390;7.494;2022-12-29T15:26:05;3.40;;;1.80;;
5077;SDS011;2557;51.390;7.494;2022-12-29T15:28:44;4.30;;;1.77;;
5077;SDS011;2557;51.390;7.494;2022-12-29T15:31:11;3.47;;;1.50;;
5077;SDS011;2557;51.390;7.494;2022-12-29T15:33:41;4.20;;;1.63;;
5077;SDS011;2557;51.390;7.494;2022-12-29T15:36:10;3.93;;;1.80;;
5077;SDS011;2557;51.390;7.494;2022-12-29T15:38:37;2.47;;;1.57;;
5077;SDS011;2557;51.390;7.494;2022-12-29T15:41:05;4.00;;;2.43;;
5077;SDS011;2557;51.390;7.494;2022-12-29T15:43:36;4.17;;;1.90;;
5077;SDS011;2557;51.390;7.494;2022-12-29T15:46:04;4.87;;;1.93;;
5077;SDS011;2557;51.390;7.494;2022-12-29T15:48:30;4.40;;;1.60;;
5077;SDS011;2557;51.390;7.494;2022-12-29T15:50:56;3.70;;;2.63;;
5077;SDS011;2557;51.390;7.494;2022-12-29T15:53:24;1.83;;;1.70;;
5077;SDS011;2557;51.390;7.494;2022-12-29T15:55:53;3.50;;;1.90;;
5077;SDS011;2557;51.390;7.494;2022-12-29T15:58:21;4.30;;;1.95;;
5077;SDS011;2557;51.390;7.494;2022-12-29T16:00:51;18.47;;;2.63;;
5077;SDS011;2557;51.390;7.494;2022-12-29T16:03:18;2.60;;;2.00;;
5077;SDS011;2557;51.390;7.494;2022-12-29T16:05:49;2.10;;;1.77;;
5077;SDS011;2557;51.390;7.494;2022-12-29T16:08:35;9.17;;;2.20;;
5077;SDS011;2557;51.390;7.494;2022-12-29T16:11:21;6.47;;;2.47;;
5077;SDS011;2557;51.390;7.494;2022-12-29T16:13:48;3.53;;;2.20;;
5077;SDS011;2557;51.390;7.494;2022-12-29T16:16:20;5.27;;;2.00;;
5077;SDS011;2557;51.390;7.494;2022-12-29T16:18:47;3.47;;;1.80;;
5077;SDS011;2557;51.390;7.494;2022-12-29T16:21:20;6.37;;;2.10;;
5077;SDS011;2557;51.390;7.494;2022-12-29T16:23:48;3.67;;;2.23;;
5077;SDS011;2557;51.390;7.494;2022-12-29T16:26:16;4.97;;;1.80;;
5077;SDS011;2557;51.390;7.494;2022-12-29T16:28:43;7.87;;;2.53;;
5077;SDS011;2557;51.390;7.494;2022-12-29T16:31:22;2.80;;;2.23;;
5077;SDS011;2557;51.390;7.494;2022-12-29T16:33:52;6.00;;;2.43;;
5077;SDS011;2557;51.390;7.494;2022-12-29T16:38:48;4.53;;;2.13;;
5077;SDS011;2557;51.390;7.494;2022-12-29T16:41:27;3.90;;;2.00;;
5077;SDS011;2557;51.390;7.494;2022-12-29T16:49:36;3.63;;;1.93;;
5077;SDS011;2557;51.390;7.494;2022-12-29T16:52:13;4.23;;;2.90;;
5077;SDS011;2557;51.390;7.494;2022-12-29T16:54:39;3.73;;;2.20;;
5077;SDS011;2557;51.390;7.494;2022-12-29T16:57:06;3.20;;;2.63;;
5077;SDS011;2557;51.390;7.494;2022-12-29T17:01:58;8.13;;;4.13;;
5077;SDS011;2557;51.390;7.494;2022-12-29T17:04:26;3.50;;;2.20;;
5077;SDS011;2557;51.390;7.494;2022-12-29T17:06:52;5.37;;;2.90;;
5077;SDS011;2557;51.390;7.494;2022-12-29T17:09:22;9.73;;;2.83;;
5077;SDS011;2557;51.390;7.494;2022-12-29T17:11:49;7.60;;;3.23;;
5077;SDS011;2557;51.390;7.494;2022-12-29T17:17:04;5.23;;;2.37;;
5077;SDS011;2557;51.390;7.494;2022-12-29T17:19:35;9.83;;;3.87;;
5077;SDS011;2557;51.390;7.494;2022-12-29T17:22:03;6.50;;;2.97;;
5077;SDS011;2557;51.390;7.494;2022-12-29T17:24:29;7.67;;;4.70;;
5077;SDS011;2557;51.390;7.494;2022-12-29T17:26:56;6.17;;;2.60;;